sensor_id;sensor_type;location;lat;lon;timestamp;P1;durP1;ratioP1;P2;durP2;ratioP2
79779;SDS011;69258;52.050;10.334;2023-07-02T00:03:08;1.10;;;1.10;;
79779;SDS011;69258;52.050;10.334;2023-07-02T00:18:10;1.10;;;1.10;;
79779;SDS011;69258;52.050;10.334;2023-07-02T00:33:13;1.03;;;1.03;;
79779;SDS011;69258;52.050;10.334;2023-07-02T00:48:16;1.03;;;1.03;;
79779;SDS011;69258;52.050;10.334;2023-07-02T01:03:19;1.20;;;1.10;;
79779;SDS011;69258;52.050;10.334;2023-07-02T01:18:21;1.63;;;1.17;;
79779;SDS011;69258;52.050;10.334;2023-07-02T01:33:22;1.03;;;1.03;;
79779;SDS011;69258;52.050;10.334;2023-07-02T01:48:25;1.10;;;1.00;;
79779;SDS011;69258;52.050;10.334;2023-07-02T02:03:27;1.60;;;1.10;;
79779;SDS011;69258;52.050;10.334;2023-07-02T02:18:29;1.30;;;1.17;;
79779;SDS011;69258;52.050;10.334;2023-07-02T02:33:32;1.83;;;1.33;;
79779;SDS011;69258;52.050;10.334;2023-07-02T02:48:35;1.40;;;1.23;;
79779;SDS011;69258;52.050;10.334;2023-07-02T03:03:40;1.30;;;1.00;;
79779;SDS011;69258;52.050;10.334;2023-07-02T03:18:43;2.37;;;1.17;;
79779;SDS011;69258;52.050;10.334;2023-07-02T03:33:44;1.30;;;1.20;;
79779;SDS011;69258;52.050;10.334;2023-07-02T03:48:47;1.73;;;1.40;;
79779;SDS011;69258;52.050;10.334;2023-07-02T04:03:49;2.00;;;1.17;;
79779;SDS011;69258;52.050;10.334;2023-07-02T04:18:53;1.47;;;1.37;;
79779;SDS011;69258;52.050;10.334;2023-07-02T04:33:56;2.67;;;1.43;;
79779;SDS011;69258;52.050;10.334;2023-07-02T04:48:59;4.53;;;1.40;;
79779;SDS011;69258;52.050;10.334;2023-07-02T05:04:02;6.13;;;1.40;;
79779;SDS011;69258;52.050;10.334;2023-07-02T05:19:05;5.00;;;3.73;;
79779;SDS011;69258;52.050;10.334;2023-07-02T05:34:07;4.37;;;3.50;;
79779;SDS011;69258;52.050;10.334;2023-07-02T05:49:08;4.97;;;3.53;;
79779;SDS011;69258;52.050;10.334;2023-07-02T06:04:11;8.00;;;4.37;;
79779;SDS011;69258;52.050;10.334;2023-07-02T06:19:14;14.97;;;5.83;;
79779;SDS011;69258;52.050;10.334;2023-07-02T06:34:17;15.10;;;6.13;;
79779;SDS011;69258;52.050;10.334;2023-07-02T06:49:20;17.13;;;6.87;;
79779;SDS011;69258;52.050;10.334;2023-07-02T07:04:22;21.70;;;9.37;;
79779;SDS011;69258;52.050;10.334;2023-07-02T07:19:24;21.77;;;11.40;;
79779;SDS011;69258;52.050;10.334;2023-07-02T07:34:27;19.37;;;9.63;;
79779;SDS011;69258;52.050;10.334;2023-07-02T07:49:28;13.57;;;8.30;;
79779;SDS011;69258;52.050;10.334;2023-07-02T08:04:30;15.13;;;7.83;;
79779;SDS011;69258;52.050;10.334;2023-07-02T08:19:34;11.57;;;6.67;;
79779;SDS011;69258;52.050;10.334;2023-07-02T08:34:36;10.87;;;6.50;;
79779;SDS011;69258;52.050;10.334;2023-07-02T08:49:39;11.03;;;6.00;;
79779;SDS011;69258;52.050;10.334;2023-07-02T09:04:42;7.77;;;5.33;;
79779;SDS011;69258;52.050;10.334;2023-07-02T09:19:50;8.53;;;5.17;;
79779;SDS011;69258;52.050;10.334;2023-07-02T09:34:57;6.23;;;5.03;;
79779;SDS011;69258;52.050;10.334;2023-07-02T09:50:02;6.70;;;4.90;;
79779;SDS011;69258;52.050;10.334;2023-07-02T10:05:06;29.17;;;17.70;;
79779;SDS011;69258;52.050;10.334;2023-07-02T10:20:09;25.17;;;14.93;;
79779;SDS011;69258;52.050;10.334;2023-07-02T10:35:15;24.20;;;14.03;;
79779;SDS011;69258;52.050;10.334;2023-07-02T10:50:21;20.73;;;12.60;;
79779;SDS011;69258;52.050;10.334;2023-07-02T11:05:23;20.33;;;11.87;;
79779;SDS011;69258;52.050;10.334;2023-07-02T11:20:33;17.53;;;10.80;;
79779;SDS011;69258;52.050;10.334;2023-07-02T11:35:36;20.33;;;10.87;;
79779;SDS011;69258;52.050;10.334;2023-07-02T11:50:38;14.70;;;9.60;;
79779;SDS011;69258;52.050;10.334;2023-07-02T12:05:41;13.33;;;9.13;;
79779;SDS011;69258;52.050;10.334;2023-07-02T12:20:43;13.50;;;9.00;;
79779;SDS011;69258;52.050;10.334;2023-07-02T12:35:46;11.80;;;8.63;;
79779;SDS011;69258;52.050;10.334;2023-07-02T12:50:55;12.53;;;8.17;;
79779;SDS011;69258;52.050;10.334;2023-07-02T13:05:57;11.10;;;8.33;;
79779;SDS011;69258;52.050;10.334;2023-07-02T13:21:00;12.80;;;7.90;;
79779;SDS011;69258;52.050;10.334;2023-07-02T13:36:01;11.37;;;7.80;;
79779;SDS011;69258;52.050;10.334;2023-07-02T13:51:03;9.80;;;7.03;;
79779;SDS011;69258;52.050;10.334;2023-07-02T14:06:07;10.03;;;7.13;;
79779;SDS011;69258;52.050;10.334;2023-07-02T14:21:09;10.37;;;6.83;;
79779;SDS011;69258;52.050;10.334;2023-07-02T14:36:11;9.97;;;7.20;;
79779;SDS011;69258;52.050;10.334;2023-07-02T14:51:14;8.17;;;6.57;;
79779;SDS011;69258;52.050;10.334;2023-07-02T15:06:16;9.67;;;6.67;;
79779;SDS011;69258;52.050;10.334;2023-07-02T15:21:19;6.93;;;5.70;;
79779;SDS011;69258;52.050;10.334;2023-07-02T15:36:21;7.97;;;6.20;;
79779;SDS011;69258;52.050;10.334;2023-07-02T15:51:24;8.93;;;6.17;;
79779;SDS011;69258;52.050;10.334;2023-07-02T16:06:27;7.27;;;5.90;;
79779;SDS011;69258;52.050;10.334;2023-07-02T16:21:30;7.83;;;5.63;;
79779;SDS011;69258;52.050;10.334;2023-07-02T16:36:31;6.87;;;5.03;;
79779;SDS011;69258;52.050;10.334;2023-07-02T16:51:33;7.40;;;5.63;;
79779;SDS011;69258;52.050;10.334;2023-07-02T17:06:36;6.77;;;5.50;;
79779;SDS011;69258;52.050;10.334;2023-07-02T17:21:38;7.13;;;5.40;;
79779;SDS011;69258;52.050;10.334;2023-07-02T17:36:40;5.63;;;4.73;;
79779;SDS011;69258;52.050;10.334;2023-07-02T17:51:43;6.07;;;5.10;;
79779;SDS011;69258;52.050;10.334;2023-07-02T18:06:46;6.57;;;5.03;;
79779;SDS011;69258;52.050;10.334;2023-07-02T18:21:49;6.90;;;4.70;;
79779;SDS011;69258;52.050;10.334;2023-07-02T18:36:52;6.67;;;4.60;;
79779;SDS011;69258;52.050;10.334;2023-07-02T18:51:54;6.10;;;4.43;;
79779;SDS011;69258;52.050;10.334;2023-07-02T19:06:57;5.97;;;5.03;;
79779;SDS011;69258;52.050;10.334;2023-07-02T19:21:59;5.57;;;4.73;;
79779;SDS011;69258;52.050;10.334;2023-07-02T19:37:02;7.00;;;4.70;;
79779;SDS011;69258;52.050;10.334;2023-07-02T19:52:05;5.90;;;4.63;;
79779;SDS011;69258;52.050;10.334;2023-07-02T20:07:11;5.17;;;4.43;;
79779;SDS011;69258;52.050;10.334;2023-07-02T20:22:15;5.67;;;4.33;;
79779;SDS011;69258;52.050;10.334;2023-07-02T20:37:18;5.30;;;4.73;;
79779;SDS011;69258;52.050;10.334;2023-07-02T20:52:21;5.53;;;4.80;;
79779;SDS011;69258;52.050;10.334;2023-07-02T21:07:24;4.47;;;4.07;;
79779;SDS011;69258;52.050;10.334;2023-07-02T21:22:28;4.90;;;4.40;;
79779;SDS011;69258;52.050;10.334;2023-07-02T21:37:30;5.93;;;4.33;;
79779;SDS011;69258;52.050;10.334;2023-07-02T21:52:33;5.80;;;4.40;;
79779;SDS011;69258;52.050;10.334;2023-07-02T22:07:34;6.70;;;4.53;;
79779;SDS011;69258;52.050;10.334;2023-07-02T22:22:40;6.27;;;4.67;;
79779;SDS011;69258;52.050;10.334;2023-07-02T22:37:43;6.03;;;4.47;;
79779;SDS011;69258;52.050;10.334;2023-07-02T22:52:46;5.37;;;4.30;;
79779;SDS011;69258;52.050;10.334;2023-07-02T23:07:51;5.67;;;4.80;;
79779;SDS011;69258;52.050;10.334;2023-07-02T23:22:54;6.90;;;4.90;;
79779;SDS011;69258;52.050;10.334;2023-07-02T23:37:55;6.47;;;4.63;;
79779;SDS011;69258;52.050;10.334;2023-07-02T23:52:58;8.17;;;5.00;;
